Stock Yards, Illinois
Current Conditions -  °F | °C
As of 1:53 AM on Saturday 25 Oct 2014 (Local Time) from KMDW Reporting Station
Broken Clouds Broken Clouds  
Wind Chill: 59°   Ceiling: 4200
Heat Index: 59°   Visibility: 10mi
Dew Point: 52°   Wind: 7mph
Humidity: 78%   Direction: 210°SSW
Pressure: 29.9"   Gusts: NA
Location:  41.8121°N, 87.6542°W
Report Text: KMDW 250653Z 21006KT 10SM BKN042 15/11 A2990 RMK AO2 SLP122 T01500111
Loading
Personal Weather Stations






























Interactive Weather Map
Tropical Storm Tracking
New forecast layout! Learn more

10-Day Weather Forecast

Advertisements
Track Severe Weather on mobile